createdAt,value
2018-09-27T00:00:15.175Z,85.66
2018-09-27T00:01:15.170Z,84.76
2018-09-27T00:02:15.164Z,82.76
2018-09-27T00:03:15.156Z,82.76
2018-09-27T00:04:15.153Z,82.67
2018-09-27T00:05:15.148Z,82.19
2018-09-27T00:06:15.152Z,82.09
2018-09-27T00:07:15.133Z,82.67
2018-09-27T00:08:15.130Z,83.19
2018-09-27T00:09:15.123Z,83.29
2018-09-27T00:10:15.121Z,83.39
2018-09-27T00:11:15.112Z,84.43
2018-09-27T00:12:15.107Z,84.81
2018-09-27T00:13:15.099Z,86.14
2018-09-27T00:14:15.095Z,86.05
2018-09-27T00:15:15.091Z,84.52
2018-09-27T00:16:15.085Z,83.29
2018-09-27T00:17:15.079Z,81.01
2018-09-27T00:18:15.069Z,79.96
2018-09-27T00:19:15.071Z,79.49
2018-09-27T00:20:15.064Z,78.91
2018-09-27T00:21:15.052Z,77.87
2018-09-27T00:22:15.049Z,77.30
2018-09-27T00:23:15.040Z,76.92
2018-09-27T00:24:15.038Z,78.63
2018-09-27T00:25:15.030Z,80.15
2018-09-27T00:26:15.025Z,79.86
2018-09-27T00:27:15.016Z,78.63
2018-09-27T00:28:15.011Z,79.11
2018-09-27T00:29:15.018Z,79.30
2018-09-27T00:30:15.000Z,79.86
2018-09-27T00:31:14.994Z,78.82
2018-09-27T00:32:14.988Z,79.77
2018-09-27T00:33:14.985Z,79.77
2018-09-27T00:34:14.976Z,77.92
2018-09-27T00:35:14.972Z,78.11
2018-09-27T00:36:14.963Z,78.02
2018-09-27T00:37:14.961Z,78.21
2018-09-27T00:38:14.956Z,77.45
2018-09-27T00:39:14.949Z,77.26
2018-09-27T00:40:14.938Z,76.12
2018-09-27T00:41:14.932Z,74.31
2018-09-27T00:42:14.927Z,72.51
2018-09-27T00:43:14.922Z,71.37
2018-09-27T00:44:14.916Z,70.23
2018-09-27T00:45:14.908Z,68.74
2018-09-27T00:46:14.905Z,67.41
2018-09-27T00:47:14.895Z,66.46
2018-09-27T00:48:14.893Z,65.89
2018-09-27T00:49:14.886Z,65.60
2018-09-27T00:50:14.876Z,66.46
2018-09-27T00:51:14.916Z,68.17
2018-09-27T00:52:14.859Z,69.12
2018-09-27T00:53:14.862Z,70.64
2018-09-27T00:54:14.853Z,71.02
2018-09-27T00:55:14.850Z,71.59
2018-09-27T00:56:14.844Z,71.88
2018-09-27T00:57:14.838Z,71.59
2018-09-27T00:58:14.831Z,71.97
2018-09-27T00:59:14.829Z,70.83
2018-09-27T01:00:14.821Z,70.17
2018-09-27T01:01:14.838Z,69.41
2018-09-27T01:02:14.844Z,68.65
2018-09-27T01:03:14.797Z,68.55
2018-09-27T01:04:14.801Z,69.88
2018-09-27T01:05:14.791Z,69.88
2018-09-27T01:06:14.782Z,70.23
2018-09-27T01:07:14.776Z,70.70
2018-09-27T01:08:14.771Z,70.13
2018-09-27T01:09:14.804Z,69.18
2018-09-27T01:10:14.757Z,69.27
2018-09-27T01:11:14.749Z,69.56
2018-09-27T01:12:14.745Z,69.66
2018-09-27T01:13:14.741Z,68.46
2018-09-27T01:14:14.734Z,67.38
2018-09-27T01:15:14.730Z,66.71
2018-09-27T01:16:14.722Z,66.90
2018-09-27T01:17:14.759Z,66.52
2018-09-27T01:18:14.706Z,66.33
2018-09-27T01:19:14.701Z,66.33
2018-09-27T01:20:14.698Z,66.14
2018-09-27T01:21:14.692Z,65.28
2018-09-27T01:22:14.685Z,63.95
2018-09-27T01:23:14.681Z,63.13
2018-09-27T01:24:14.675Z,62.27
2018-09-27T01:25:14.666Z,62.94
2018-09-27T01:26:14.666Z,62.46
2018-09-27T01:27:14.658Z,63.23
2018-09-27T01:28:14.649Z,63.23
2018-09-27T01:29:14.676Z,63.23
2018-09-27T02:06:55.693Z,76.44
2018-09-27T02:07:55.646Z,76.35
2018-09-27T02:09:48.552Z,79.30
2018-09-27T02:10:48.530Z,80.87
2018-09-27T02:12:41.457Z,80.68
2018-09-27T02:13:41.441Z,79.92
2018-09-27T02:15:34.363Z,78.69
2018-09-27T02:16:34.329Z,79.25
2018-09-27T02:18:27.262Z,76.50
2018-09-27T02:19:27.222Z,74.69
2018-09-27T02:21:20.150Z,73.46
2018-09-27T02:22:20.135Z,72.89
2018-09-27T02:24:13.078Z,71.94
2018-09-27T02:25:13.052Z,72.22
2018-09-27T02:27:05.977Z,72.00
2018-09-27T02:28:05.959Z,72.19
2018-09-27T02:29:58.911Z,71.62
2018-09-27T02:30:58.883Z,70.48
2018-09-27T02:32:51.827Z,68.29
2018-09-27T02:33:51.813Z,67.44
2018-09-27T02:35:44.739Z,67.44
2018-09-27T02:36:44.707Z,67.44
2018-09-27T02:38:37.655Z,65.63
2018-09-27T02:39:37.642Z,64.49
2018-09-27T02:41:30.536Z,64.40
2018-09-27T02:42:30.515Z,64.49
2018-09-27T02:44:23.472Z,64.59
2018-09-27T02:45:23.428Z,64.49
2018-09-27T02:47:16.326Z,64.59
2018-09-27T02:48:16.307Z,65.44
2018-09-27T02:50:09.271Z,64.59
2018-09-27T02:51:09.248Z,64.40
2018-09-27T02:53:02.157Z,62.78
2018-09-27T02:54:02.148Z,62.50
2018-09-27T02:55:55.095Z,60.69
2018-09-27T02:56:55.051Z,58.89
2018-09-27T02:58:47.946Z,56.16
2018-09-27T02:59:47.933Z,56.26
2018-09-27T03:01:40.884Z,57.40
2018-09-27T03:02:40.858Z,57.68
2018-09-27T03:04:33.762Z,59.49
2018-09-27T03:05:33.741Z,60.91
2018-09-27T03:07:26.669Z,63.07
2018-09-27T03:08:26.653Z,63.73
2018-09-27T03:10:19.575Z,63.83
2018-09-27T03:11:19.550Z,62.69
2018-09-27T03:13:12.513Z,61.39
2018-09-27T03:14:12.503Z,59.77
2018-09-27T03:16:05.431Z,58.92
2018-09-27T03:17:05.407Z,58.06
2018-09-27T03:18:58.322Z,59.39
2018-09-27T03:19:58.313Z,60.82
2018-09-27T03:21:51.256Z,62.59
2018-09-27T03:22:51.232Z,63.35
2018-09-27T03:24:44.143Z,65.54
2018-09-27T03:25:44.111Z,65.73
2018-09-27T03:27:37.048Z,66.30
2018-09-27T03:28:37.026Z,66.87
2018-09-27T03:30:29.950Z,64.69
2018-09-27T03:31:29.927Z,64.02
2018-09-27T03:33:22.860Z,64.02
2018-09-27T03:34:22.848Z,64.02
2018-09-27T03:36:15.756Z,62.50
2018-09-27T03:37:15.728Z,62.02
2018-09-27T03:39:08.646Z,60.69
2018-09-27T03:40:08.651Z,60.50
2018-09-27T03:42:01.559Z,61.36
2018-09-27T03:43:01.531Z,60.95
2018-09-27T03:44:54.469Z,59.27
2018-09-27T03:45:54.467Z,58.41
2018-09-27T03:47:47.359Z,56.80
2018-09-27T03:48:47.339Z,56.23
2018-09-27T03:50:40.273Z,54.90
2018-09-27T03:51:40.248Z,54.14
2018-09-27T03:53:33.172Z,53.19
2018-09-27T03:54:33.149Z,53.09
2018-09-27T03:56:26.121Z,52.53
2018-09-27T03:57:26.062Z,52.53
2018-09-27T03:59:19.024Z,53.47
2018-09-27T04:00:19.012Z,53.95
2018-09-27T04:02:11.936Z,54.05
2018-09-27T04:03:11.935Z,54.71
2018-09-27T04:05:04.835Z,55.94
2018-09-27T04:06:04.826Z,56.42
2018-09-27T04:07:57.732Z,56.70
2018-09-27T04:08:57.706Z,56.13
2018-09-27T04:10:50.646Z,56.80
2018-09-27T04:11:50.619Z,56.61
2018-09-27T04:13:43.551Z,56.04
2018-09-27T04:14:43.524Z,56.04
2018-09-27T04:16:36.456Z,55.94
2018-09-27T04:17:36.432Z,55.85
2018-09-27T04:19:29.336Z,55.47
2018-09-27T04:20:29.322Z,55.18
2018-09-27T04:22:22.256Z,55.18
2018-09-27T04:23:22.237Z,54.71
2018-09-27T04:25:15.143Z,54.05
2018-09-27T04:26:15.137Z,54.24
2018-09-27T04:28:08.071Z,54.05
2018-09-27T04:29:08.038Z,53.66
2018-09-27T04:31:00.957Z,53.38
2018-09-27T04:32:00.936Z,52.91
2018-09-27T04:33:53.920Z,52.05
2018-09-27T04:34:53.843Z,52.33
2018-09-27T04:36:46.769Z,52.14
2018-09-27T04:37:46.741Z,52.31
2018-09-27T04:39:39.733Z,53.00
2018-09-27T04:40:39.724Z,53.09
2018-09-27T04:42:32.598Z,53.07
2018-09-27T04:43:32.579Z,52.62
2018-09-27T04:45:25.512Z,52.33
2018-09-27T04:46:25.501Z,51.76
2018-09-27T04:48:18.436Z,52.24
2018-09-27T04:49:18.412Z,52.24
2018-09-27T04:51:11.355Z,52.02
2018-09-27T04:52:11.314Z,52.50
2018-09-27T04:54:04.242Z,53.26
2018-09-27T04:55:04.217Z,52.97
2018-09-27T04:56:57.143Z,54.02
2018-09-27T04:57:57.118Z,54.02
2018-09-27T04:59:50.066Z,54.02
2018-09-27T05:00:50.027Z,53.92
2018-09-27T05:02:42.953Z,53.83
2018-09-27T05:03:42.941Z,53.45
2018-09-27T05:05:35.838Z,53.16
2018-09-27T05:06:35.828Z,52.59
2018-09-27T05:08:28.758Z,51.64
2018-09-27T05:09:28.762Z,51.74
2018-09-27T05:11:21.632Z,52.12
2018-09-27T05:12:21.615Z,52.69
2018-09-27T05:14:14.511Z,52.69
2018-09-27T05:15:14.487Z,52.50
2018-09-27T05:17:07.408Z,52.02
2018-09-27T05:18:07.393Z,51.29
2018-09-27T05:20:00.308Z,51.26
2018-09-27T05:21:00.289Z,51.55
2018-09-27T05:22:53.218Z,52.02
2018-09-27T05:23:53.196Z,52.59
2018-09-27T05:24:53.187Z,52.87
2018-09-27T05:25:53.183Z,53.73
2018-09-27T05:26:53.185Z,53.35
2018-09-27T05:27:53.168Z,54.11
2018-09-27T05:28:53.163Z,54.30
2018-09-27T05:29:53.156Z,54.87
2018-09-27T05:30:53.151Z,55.44
2018-09-27T05:31:53.138Z,55.44
2018-09-27T05:32:53.138Z,55.28
2018-09-27T05:33:53.127Z,54.90
2018-09-27T05:34:53.123Z,54.24
2018-09-27T05:35:53.116Z,54.24
2018-09-27T05:36:53.111Z,55.09
2018-09-27T05:37:53.105Z,55.57
2018-09-27T05:38:53.111Z,56.42
2018-09-27T05:39:53.093Z,56.99
2018-09-27T05:40:53.087Z,57.84
2018-09-27T05:41:53.078Z,58.61
2018-09-27T05:42:53.074Z,59.55
2018-09-27T05:43:53.063Z,59.39
2018-09-27T05:44:53.050Z,59.27
2018-09-27T05:45:53.048Z,59.11
2018-09-27T05:46:53.054Z,58.16
2018-09-27T05:47:53.044Z,57.68
2018-09-27T05:48:53.034Z,57.30
2018-09-27T05:49:53.082Z,57.87
2018-09-27T05:50:53.019Z,57.59
2018-09-27T05:51:53.012Z,57.50
2018-09-27T05:52:53.008Z,58.63
2018-09-27T05:53:52.997Z,59.87
2018-09-27T05:54:52.997Z,61.90
2018-09-27T05:55:53.020Z,63.23
2018-09-27T05:56:52.987Z,65.89
2018-09-27T05:57:53.008Z,66.84
2018-09-27T05:58:52.972Z,68.07
2018-09-27T05:59:52.967Z,69.12
2018-09-27T06:00:52.964Z,71.50
2018-09-27T06:01:52.984Z,72.01
2018-09-27T06:02:52.949Z,73.34
2018-09-27T06:03:52.941Z,73.82
2018-09-27T06:04:52.937Z,74.58
2018-09-27T06:05:52.989Z,76.01
2018-09-27T06:06:52.934Z,77.24
2018-09-27T06:07:52.925Z,78.38
2018-09-27T06:08:52.919Z,81.95
2018-09-27T06:09:52.912Z,82.99
2018-09-27T06:10:52.907Z,83.09
2018-09-27T06:11:52.901Z,86.61
2018-09-27T06:12:52.899Z,93.32
2018-09-27T06:13:52.895Z,94.65
2018-09-27T06:14:52.884Z,96.94
2018-09-27T06:15:52.887Z,97.70
2018-09-27T06:16:52.880Z,98.08
2018-09-27T06:17:52.871Z,99.99
2018-09-27T06:18:52.868Z,99.99
2018-09-27T06:19:52.933Z,99.99
2018-09-27T06:20:52.858Z,99.99
2018-09-27T06:21:52.851Z,99.99
2018-09-27T06:22:52.851Z,99.99
2018-09-27T06:23:52.846Z,99.99
2018-09-27T06:24:52.845Z,99.99
2018-09-27T06:25:52.856Z,99.99
2018-09-27T06:26:52.831Z,99.99
2018-09-27T06:27:52.831Z,99.99
2018-09-27T06:28:52.825Z,99.99
2018-09-27T06:29:52.820Z,99.99
2018-09-27T06:30:52.816Z,99.99
2018-09-27T06:31:52.809Z,99.99
2018-09-27T06:32:52.803Z,99.99
2018-09-27T06:33:52.803Z,99.99
2018-09-27T06:34:52.840Z,99.99
2018-09-27T06:35:52.801Z,99.99
2018-09-27T06:36:52.796Z,99.99
2018-09-27T06:37:52.793Z,99.99
2018-09-27T06:38:52.789Z,99.99
2018-09-27T06:39:52.782Z,99.99
2018-09-27T06:40:52.785Z,99.99
2018-09-27T06:41:52.777Z,99.99
2018-09-27T06:42:52.772Z,99.99
2018-09-27T06:43:52.801Z,99.99
2018-09-27T06:44:52.768Z,99.99
2018-09-27T06:45:52.763Z,99.99
2018-09-27T06:46:52.760Z,99.99
2018-09-27T06:47:52.759Z,99.99
2018-09-27T06:48:52.819Z,99.99
2018-09-27T06:49:52.742Z,99.99
2018-09-27T06:50:52.749Z,99.99
2018-09-27T06:51:52.758Z,99.99
2018-09-27T06:52:52.751Z,99.99
2018-09-27T06:53:52.744Z,99.99
2018-09-27T06:54:52.894Z,99.99
2018-09-27T06:55:52.881Z,99.99
2018-09-27T06:56:52.779Z,99.99
2018-09-27T06:57:52.784Z,99.99
2018-09-27T06:58:52.734Z,99.99
2018-09-27T06:59:52.736Z,99.99
2018-09-27T07:00:52.789Z,99.99
2018-09-27T07:01:52.737Z,99.99
2018-09-27T07:02:52.741Z,99.99
2018-09-27T07:03:52.734Z,99.99
2018-09-27T07:04:52.781Z,99.99
2018-09-27T07:05:52.735Z,99.97
2018-09-27T07:06:52.737Z,99.58
2018-09-27T07:07:52.733Z,99.99
2018-09-27T07:08:52.738Z,99.99
2018-09-27T07:09:52.743Z,99.99
2018-09-27T07:10:52.737Z,99.99
2018-09-27T07:11:52.815Z,99.99
2018-09-27T07:12:52.753Z,99.99
2018-09-27T07:13:52.766Z,99.99
2018-09-27T07:14:52.749Z,99.99
2018-09-27T07:15:52.753Z,99.99
2018-09-27T07:16:52.751Z,99.99
2018-09-27T07:17:52.755Z,99.73
2018-09-27T07:18:52.824Z,97.57
2018-09-27T07:19:52.759Z,95.94
2018-09-27T07:20:52.763Z,94.26
2018-09-27T07:21:52.763Z,94.45
2018-09-27T07:22:52.767Z,90.83
2018-09-27T07:23:52.774Z,89.10
2018-09-27T07:24:52.774Z,88.00
2018-09-27T07:25:52.780Z,88.73
2018-09-27T07:26:52.815Z,91.80
2018-09-27T07:27:52.789Z,88.10
2018-09-27T07:28:52.793Z,87.62
2018-09-27T07:29:52.853Z,87.96
2018-09-27T07:30:52.800Z,89.11
2018-09-27T07:31:52.803Z,89.73
2018-09-27T07:32:52.808Z,88.48
2018-09-27T07:33:52.812Z,84.86
2018-09-27T07:34:52.814Z,81.62
2018-09-27T07:35:52.823Z,78.88
2018-09-27T07:36:52.843Z,79.46
2018-09-27T07:37:52.830Z,79.17
2018-09-27T07:38:52.842Z,77.76
2018-09-27T07:39:52.847Z,76.26
2018-09-27T07:40:52.849Z,74.51
2018-09-27T07:41:52.857Z,73.63
2018-09-27T07:42:52.896Z,72.58
2018-09-27T07:43:52.868Z,73.44
2018-09-27T07:44:52.871Z,72.83
2018-09-27T07:45:52.883Z,73.41
2018-09-27T07:46:52.886Z,73.41
2018-09-27T07:47:52.898Z,72.63
2018-09-27T07:48:52.906Z,71.88
2018-09-27T07:49:52.905Z,70.29
2018-09-27T07:50:52.916Z,71.19
2018-09-27T07:51:52.917Z,73.18
2018-09-27T07:52:52.926Z,73.50
2018-09-27T07:53:52.930Z,73.82
2018-09-27T07:54:53.004Z,75.84
2018-09-27T07:55:52.946Z,75.74
2018-09-27T07:56:52.953Z,74.37
2018-09-27T07:57:52.957Z,71.55
2018-09-27T07:58:52.969Z,70.14
2018-09-27T07:59:53.802Z,69.71
2018-09-27T08:00:52.978Z,70.51
2018-09-27T08:01:52.985Z,71.86
2018-09-27T08:02:53.156Z,72.41
2018-09-27T08:03:53.006Z,71.15
2018-09-27T08:04:53.017Z,71.70
2018-09-27T08:05:53.015Z,69.23
2018-09-27T08:06:53.027Z,69.01
2018-09-27T08:07:53.033Z,68.13
2018-09-27T08:08:53.040Z,68.30
2018-09-27T08:09:53.066Z,67.97
2018-09-27T08:10:53.107Z,69.13
2018-09-27T08:11:53.090Z,69.26
2018-09-27T08:12:53.069Z,69.10
2018-09-27T08:13:53.074Z,72.42
2018-09-27T08:14:53.083Z,69.24
2018-09-27T08:15:53.091Z,66.94
2018-09-27T08:16:53.126Z,68.59
2018-09-27T08:17:53.109Z,70.26
2018-09-27T08:18:53.116Z,71.26
2018-09-27T08:19:53.123Z,71.77
2018-09-27T08:20:53.183Z,72.99
2018-09-27T08:21:53.144Z,72.86
2018-09-27T08:22:53.149Z,70.39
2018-09-27T08:23:53.176Z,71.88
2018-09-27T08:24:53.165Z,71.14
2018-09-27T08:25:53.174Z,67.76
2018-09-27T08:26:53.182Z,66.17
2018-09-27T08:27:53.192Z,67.66
2018-09-27T08:28:53.201Z,65.92
2018-09-27T08:29:53.251Z,67.01
2018-09-27T08:30:53.358Z,68.88
2018-09-27T08:31:53.227Z,71.00
2018-09-27T08:32:53.236Z,69.59
2018-09-27T08:33:53.245Z,67.82
2018-09-27T08:34:53.252Z,68.40
2018-09-27T08:35:53.260Z,67.17
2018-09-27T08:36:53.280Z,66.56
2018-09-27T08:37:53.282Z,65.30
2018-09-27T08:38:53.291Z,66.14
2018-09-27T08:39:53.298Z,67.63
2018-09-27T08:40:53.313Z,67.33
2018-09-27T08:41:53.320Z,65.88
2018-09-27T08:42:53.330Z,65.20
2018-09-27T08:43:53.353Z,63.01
2018-09-27T08:44:53.540Z,61.98
2018-09-27T08:45:53.432Z,60.81
2018-09-27T08:46:53.370Z,61.42
2018-09-27T08:47:53.380Z,63.33
2018-09-27T08:48:53.390Z,64.27
2018-09-27T08:49:53.415Z,66.47
2018-09-27T08:50:53.442Z,67.79
2018-09-27T08:51:53.417Z,66.02
2018-09-27T08:52:53.432Z,63.26
2018-09-27T08:53:53.440Z,62.65
2018-09-27T08:54:53.449Z,61.16
2018-09-27T08:55:53.502Z,60.74
2018-09-27T08:56:53.467Z,63.53
2018-09-27T08:57:53.477Z,62.71
2018-09-27T08:58:53.492Z,59.61
2018-09-27T08:59:53.503Z,61.10
2018-09-27T09:00:53.518Z,60.94
2018-09-27T09:01:53.520Z,62.75
2018-09-27T09:02:53.531Z,63.85
2018-09-27T09:03:53.625Z,63.40
2018-09-27T09:04:53.554Z,63.68
2018-09-27T09:05:53.566Z,61.22
2018-09-27T09:06:53.581Z,59.76
2018-09-27T09:07:53.588Z,61.22
2018-09-27T09:08:53.601Z,58.69
2018-09-27T09:09:53.610Z,57.59
2018-09-27T09:10:53.621Z,57.50
2018-09-27T09:11:53.664Z,58.14
2018-09-27T09:12:53.643Z,58.07
2018-09-27T09:13:53.660Z,58.04
2018-09-27T09:14:53.670Z,56.24
2018-09-27T09:15:53.678Z,57.56
2018-09-27T09:16:53.695Z,57.78
2018-09-27T09:17:53.699Z,58.14
2018-09-27T09:18:53.713Z,58.67
2018-09-27T09:19:53.723Z,57.65
2018-09-27T09:20:53.739Z,58.04
2018-09-27T09:21:53.748Z,58.54
2018-09-27T09:22:53.763Z,62.23
2018-09-27T09:23:53.775Z,62.82
2018-09-27T09:24:53.801Z,63.62
2018-09-27T09:25:53.828Z,64.95
2018-09-27T09:26:53.806Z,64.62
2018-09-27T09:27:53.826Z,61.42
2018-09-27T09:28:53.830Z,57.43
2018-09-27T09:29:53.888Z,57.49
2018-09-27T09:30:53.857Z,56.81
2018-09-27T09:31:53.870Z,57.87
2018-09-27T09:32:53.886Z,57.85
2018-09-27T09:33:53.890Z,59.34
2018-09-27T09:34:53.906Z,60.54
2018-09-27T09:35:53.921Z,57.26
2018-09-27T09:36:53.929Z,58.97
2018-09-27T09:37:53.946Z,56.67
2018-09-27T09:38:53.962Z,57.60
2018-09-27T09:39:53.965Z,54.85
2018-09-27T09:40:53.981Z,53.45
2018-09-27T09:41:53.990Z,54.86
2018-09-27T09:42:54.000Z,59.57
2018-09-27T09:43:54.024Z,59.49
2018-09-27T09:44:54.026Z,55.04
2018-09-27T09:45:54.037Z,54.05
2018-09-27T09:46:54.056Z,53.83
2018-09-27T09:47:54.063Z,54.66
2018-09-27T09:48:54.079Z,57.75
2018-09-27T09:49:54.136Z,57.12
2018-09-27T09:50:54.104Z,56.59
2018-09-27T09:51:54.114Z,56.12
2018-09-27T09:52:54.126Z,57.42
2018-09-27T09:53:54.140Z,57.61
2018-09-27T09:54:54.186Z,58.61
2018-09-27T09:55:54.170Z,55.55
2018-09-27T09:56:54.179Z,56.85
2018-09-27T09:57:54.187Z,58.54
2018-09-27T09:58:54.206Z,57.98
2018-09-27T09:59:54.263Z,57.68
2018-09-27T10:00:54.229Z,55.69
2018-09-27T10:01:54.240Z,58.37
2018-09-27T10:02:54.250Z,59.34
2018-09-27T10:03:54.265Z,56.56
2018-09-27T10:04:54.277Z,56.12
2018-09-27T10:05:54.295Z,60.21
2018-09-27T10:06:54.313Z,57.68
2018-09-27T10:07:54.324Z,59.89
2018-09-27T10:08:54.395Z,61.02
2018-09-27T10:09:54.337Z,60.58
2018-09-27T10:10:54.356Z,58.04
2018-09-27T10:11:54.369Z,60.44
2018-09-27T10:12:54.380Z,59.83
2018-09-27T10:13:54.392Z,59.84
2018-09-27T10:14:54.402Z,62.04
2018-09-27T10:15:54.419Z,60.45
2018-09-27T10:16:54.429Z,60.25
2018-09-27T10:17:54.440Z,61.16
2018-09-27T10:18:54.452Z,61.68
2018-09-27T10:19:54.462Z,59.83
2018-09-27T10:20:54.479Z,57.43
2018-09-27T10:21:54.546Z,59.67
2018-09-27T10:22:54.516Z,56.03
2018-09-27T10:23:54.509Z,55.93
2018-09-27T10:24:54.526Z,53.85
2018-09-27T10:25:54.534Z,53.21
2018-09-27T10:26:54.569Z,54.68
2018-09-27T10:27:54.561Z,53.55
2018-09-27T10:28:54.574Z,55.35
2018-09-27T10:29:54.586Z,55.50
2018-09-27T10:30:54.602Z,55.18
2018-09-27T10:31:54.618Z,57.39
2018-09-27T10:32:54.623Z,57.46
2018-09-27T10:33:54.634Z,60.21
2018-09-27T10:34:54.650Z,54.97
2018-09-27T10:35:54.660Z,55.27
2018-09-27T10:36:54.671Z,58.23
2018-09-27T10:37:54.684Z,56.10
2018-09-27T10:38:54.695Z,55.44
2018-09-27T10:39:54.709Z,56.51
2018-09-27T10:40:54.720Z,56.34
2018-09-27T10:41:54.730Z,59.00
2018-09-27T10:42:54.747Z,57.59
2018-09-27T10:43:54.758Z,58.91
2018-09-27T10:44:54.797Z,57.03
2018-09-27T10:45:54.779Z,58.23
2018-09-27T10:46:54.796Z,55.43
2018-09-27T10:47:54.807Z,55.27
2018-09-27T10:48:54.819Z,58.04
2018-09-27T10:49:54.831Z,57.61
2018-09-27T10:50:54.843Z,55.44
2018-09-27T10:51:54.856Z,55.18
2018-09-27T10:52:54.866Z,54.21
2018-09-27T10:53:54.878Z,54.72
2018-09-27T10:54:54.895Z,53.91
2018-09-27T10:55:54.915Z,55.65
2018-09-27T10:56:54.913Z,57.25
2018-09-27T10:57:54.923Z,59.74
2018-09-27T10:58:54.938Z,60.54
2018-09-27T10:59:54.982Z,59.74
2018-09-27T11:00:54.963Z,58.25
2018-09-27T11:01:54.973Z,58.79
2018-09-27T11:02:54.985Z,59.86
2018-09-27T11:03:55.011Z,57.51
2018-09-27T11:04:55.007Z,55.27
2018-09-27T11:05:55.020Z,55.22
2018-09-27T11:06:55.028Z,56.56
2018-09-27T11:07:55.046Z,56.76
2018-09-27T11:08:55.056Z,58.98
2018-09-27T11:09:55.081Z,55.93
2018-09-27T11:10:55.115Z,54.89
2018-09-27T11:11:55.092Z,55.83
2018-09-27T11:12:55.103Z,58.15
2018-09-27T11:13:55.114Z,58.11
2018-09-27T11:14:55.125Z,56.75
2018-09-27T11:15:55.139Z,58.31
2018-09-27T11:16:55.151Z,58.40
2018-09-27T11:17:55.161Z,58.11
2018-09-27T11:18:55.175Z,56.24
2018-09-27T11:19:55.189Z,59.01
2018-09-27T11:20:55.246Z,53.65
2018-09-27T11:21:55.260Z,53.85
2018-09-27T11:22:55.231Z,54.79
2018-09-27T11:23:55.233Z,56.20
2018-09-27T11:24:55.246Z,56.39
2018-09-27T11:25:55.255Z,57.82
2018-09-27T11:26:55.268Z,56.29
2018-09-27T11:27:55.275Z,54.60
2018-09-27T11:28:55.299Z,52.67
2018-09-27T11:29:55.300Z,56.61
2018-09-27T11:30:55.314Z,57.51
2018-09-27T11:31:55.327Z,55.01
2018-09-27T11:32:55.341Z,56.74
2018-09-27T11:33:55.349Z,54.75
2018-09-27T11:34:55.366Z,49.83
2018-09-27T11:35:55.373Z,50.87
2018-09-27T11:36:55.383Z,51.51
2018-09-27T11:37:55.395Z,52.99
2018-09-27T11:38:55.406Z,51.65
2018-09-27T11:39:55.422Z,53.33
2018-09-27T11:40:55.430Z,53.33
2018-09-27T11:41:55.449Z,53.30
2018-09-27T11:42:55.521Z,55.66
2018-09-27T11:43:55.469Z,52.84
2018-09-27T11:44:55.479Z,53.38
2018-09-27T11:45:55.489Z,52.97
2018-09-27T11:46:55.589Z,52.24
2018-09-27T11:47:55.513Z,51.87
2018-09-27T11:48:55.597Z,53.23
2018-09-27T11:49:55.626Z,52.44
2018-09-27T11:50:55.547Z,52.67
2018-09-27T11:51:55.557Z,55.82
2018-09-27T11:52:55.584Z,55.99
2018-09-27T11:53:55.599Z,54.79
2018-09-27T11:54:55.609Z,52.70
2018-09-27T11:55:55.667Z,53.48
2018-09-27T11:56:55.615Z,52.70
2018-09-27T11:57:55.627Z,51.68
2018-09-27T11:58:55.675Z,49.88
2018-09-27T11:59:55.657Z,47.44
2018-09-27T12:00:55.663Z,48.80
2018-09-27T12:01:55.673Z,47.09
2018-09-27T12:02:55.684Z,46.41
2018-09-27T12:03:55.704Z,46.75
2018-09-27T12:04:55.716Z,47.28
2018-09-27T12:05:55.739Z,46.23
2018-09-27T12:06:55.732Z,46.11
2018-09-27T12:07:55.748Z,49.77
2018-09-27T12:08:55.759Z,47.48
2018-09-27T12:09:55.767Z,48.58
2018-09-27T12:10:55.777Z,52.45
2018-09-27T12:11:55.800Z,55.22
2018-09-27T12:12:55.823Z,55.28
2018-09-27T12:13:55.831Z,59.49
2018-09-27T12:14:55.824Z,59.75
2018-09-27T12:15:55.870Z,61.43
2018-09-27T12:16:55.849Z,63.34
2018-09-27T12:17:55.858Z,63.63
2018-09-27T12:18:55.883Z,62.08
2018-09-27T12:19:55.887Z,60.44
2018-09-27T12:20:55.890Z,65.14
2018-09-27T12:21:55.891Z,65.92
2018-09-27T12:22:55.912Z,64.24
2018-09-27T12:23:55.913Z,65.08
2018-09-27T12:24:55.919Z,68.10
2018-09-27T12:25:55.921Z,64.89
2018-09-27T12:26:55.929Z,67.78
2018-09-27T12:27:55.933Z,65.47
2018-09-27T12:28:55.939Z,65.14
2018-09-27T12:29:55.942Z,67.20
2018-09-27T12:30:56.007Z,67.97
2018-09-27T12:31:55.965Z,65.85
2018-09-27T12:32:56.300Z,66.85
2018-09-27T12:33:55.976Z,65.47
2018-09-27T12:34:55.971Z,66.82
2018-09-27T12:35:55.973Z,65.69
2018-09-27T12:36:55.977Z,66.24
2018-09-27T12:37:55.980Z,65.91
2018-09-27T12:38:56.056Z,67.55
2018-09-27T12:39:55.991Z,68.13
2018-09-27T12:40:55.993Z,69.00
2018-09-27T12:41:56.092Z,65.05
2018-09-27T12:42:56.004Z,65.91
2018-09-27T12:43:56.010Z,66.97
2018-09-27T12:44:56.024Z,65.14
2018-09-27T12:45:56.021Z,67.27
2018-09-27T12:46:56.061Z,68.52
2018-09-27T12:47:56.025Z,68.65
2018-09-27T12:48:56.020Z,66.20
2018-09-27T12:49:56.019Z,65.24
2018-09-27T12:50:56.066Z,65.63
2018-09-27T12:51:56.089Z,65.11
2018-09-27T12:52:56.117Z,64.15
2018-09-27T12:53:56.019Z,66.85
2018-09-27T12:54:56.024Z,67.33
2018-09-27T12:55:56.080Z,67.91
2018-09-27T12:56:56.032Z,66.14
2018-09-27T12:57:56.033Z,65.27
2018-09-27T12:58:56.031Z,65.69
2018-09-27T12:59:56.028Z,68.01
2018-09-27T13:00:56.074Z,68.01
2018-09-27T13:01:56.154Z,66.56
2018-09-27T13:02:56.107Z,64.63
2018-09-27T13:03:56.061Z,65.01
2018-09-27T13:04:56.031Z,63.73
2018-09-27T13:05:56.034Z,64.40
2018-09-27T13:06:56.053Z,65.01
2018-09-27T13:07:56.032Z,66.85
2018-09-27T13:08:56.055Z,65.50
2018-09-27T13:09:56.207Z,64.34
2018-09-27T13:10:56.037Z,64.95
2018-09-27T13:11:56.099Z,64.18
2018-09-27T13:12:56.110Z,65.27
2018-09-27T13:13:56.034Z,63.70
2018-09-27T13:14:56.092Z,64.08
2018-09-27T13:15:56.095Z,62.25
2018-09-27T13:16:56.035Z,62.89
2018-09-27T13:17:56.034Z,63.40
2018-09-27T13:18:57.941Z,63.02
2018-09-27T13:19:56.166Z,63.50
2018-09-27T13:20:56.036Z,61.47
2018-09-27T13:21:56.035Z,61.38
2018-09-27T13:22:56.061Z,62.92
2018-09-27T13:23:56.037Z,65.88
2018-09-27T13:24:56.147Z,65.53
2018-09-27T13:25:56.043Z,64.47
2018-09-27T13:26:56.054Z,64.08
2018-09-27T13:27:56.041Z,64.76
2018-09-27T13:28:56.043Z,62.73
2018-09-27T13:29:56.037Z,63.79
2018-09-27T13:30:56.044Z,62.22
2018-09-27T13:31:56.118Z,63.24
2018-09-27T13:32:56.046Z,62.86
2018-09-27T13:33:56.084Z,63.44
2018-09-27T13:34:56.041Z,64.34
2018-09-27T13:35:56.040Z,64.24
2018-09-27T13:36:56.090Z,65.11
2018-09-27T13:37:56.036Z,64.43
2018-09-27T13:38:56.093Z,64.53
2018-09-27T13:39:56.097Z,66.33
2018-09-27T13:40:56.040Z,65.75
2018-09-27T13:41:56.042Z,66.82
2018-09-27T13:42:56.081Z,66.04
2018-09-27T13:43:56.041Z,65.01
2018-09-27T13:44:56.072Z,62.99
2018-09-27T13:45:56.037Z,63.18
2018-09-27T13:46:56.043Z,61.06
2018-09-27T13:47:56.037Z,61.25
2018-09-27T13:48:56.044Z,62.31
2018-09-27T13:49:56.035Z,62.99
2018-09-27T13:50:56.080Z,62.44
2018-09-27T13:51:56.039Z,62.25
2018-09-27T13:52:56.036Z,62.34
2018-09-27T13:53:56.042Z,62.92
2018-09-27T13:54:56.056Z,62.73
2018-09-27T13:55:56.035Z,62.44
2018-09-27T13:56:56.122Z,63.02
2018-09-27T13:57:56.039Z,62.73
2018-09-27T13:58:56.037Z,62.82
2018-09-27T13:59:56.036Z,61.57
2018-09-27T14:00:56.051Z,62.63
2018-09-27T14:01:56.036Z,63.70
2018-09-27T14:02:56.034Z,62.99
2018-09-27T14:03:56.037Z,62.31
2018-09-27T14:04:56.037Z,62.31
2018-09-27T14:05:56.035Z,61.83
2018-09-27T14:06:56.032Z,62.41
2018-09-27T14:07:56.036Z,61.06
2018-09-27T14:08:56.031Z,60.86
2018-09-27T14:09:56.031Z,62.41
2018-09-27T14:10:56.030Z,62.31
2018-09-27T14:11:56.033Z,62.70
2018-09-27T14:12:56.028Z,62.02
2018-09-27T14:13:56.034Z,61.93
2018-09-27T14:14:56.031Z,61.64
2018-09-27T14:15:56.030Z,62.51
2018-09-27T14:16:56.055Z,63.21
2018-09-27T14:17:56.031Z,62.82
2018-09-27T14:18:56.033Z,62.22
2018-09-27T14:19:56.028Z,63.95
2018-09-27T14:20:56.029Z,61.83
2018-09-27T14:21:56.027Z,62.02
2018-09-27T14:22:56.035Z,62.41
2018-09-27T14:23:56.026Z,63.47
2018-09-27T14:24:56.061Z,63.28
2018-09-27T14:25:56.027Z,63.85
2018-09-27T14:26:56.032Z,65.50
2018-09-27T14:27:56.024Z,64.43
2018-09-27T14:28:56.028Z,65.01